Time;durP1;ratioP1;P1;durP2;ratioP2;P2;SDS_P1;SDS_P2;PMS_P1;PMS_P2;Temp;Humidity;BMP_temperature;BMP_pressure;BME280_temperature;BME280_humidity;BME280_pressure;Samples;Min_cycle;Max_cycle;Signal;HPM_P1;HPM_P2
2021/10/28 00:12:13;;;;;;;;;;;12.50;99.90;;;;;;5133802;28;20006;-70
2021/10/28 00:12:30;;;;;;;;;;;12.70;99.90;;;;;;5138290;27;20386;-73
2021/10/28 00:14:57;;;;;;;;;;;12.80;99.90;;;;;;5138929;27;19915;-70
2021/10/28 00:17:39;;;;;;;;;;;12.80;99.90;;;;;;5138175;27;19908;-72
2021/10/28 00:20:06;;;;;;;;;;;12.90;99.90;;;;;;5138600;27;19947;-71
2021/10/28 00:22:32;;;;;;;;;;;12.90;99.90;;;;;;5138135;27;20344;-72
2021/10/28 00:24:57;;;;;;;;;;;12.90;99.90;;;;;;5138251;27;19946;-73
2021/10/28 00:27:23;;;;;;;;;;;12.80;99.90;;;;;;5138437;27;19914;-71
2021/10/28 00:29:49;;;;;;;;;;;12.80;99.90;;;;;;5138128;27;19961;-70
2021/10/28 00:32:15;;;;;;;;;;;12.80;99.90;;;;;;5138069;27;19907;-71
2021/10/28 00:34:41;;;;;;;;;;;12.80;99.90;;;;;;5138536;27;19916;-72
2021/10/28 00:37:07;;;;;;;;;;;12.70;99.90;;;;;;5137821;27;19999;-69
2021/10/28 00:39:32;;;;;;;;;;;12.70;99.90;;;;;;5138157;27;19911;-72
2021/10/28 00:41:58;;;;;;;;;;;12.70;99.90;;;;;;5137873;27;20444;-70
2021/10/28 00:44:24;;;;;;;;;;;12.80;99.90;;;;;;5138152;27;19911;-73
2021/10/28 00:46:49;;;;;;;;;;;12.80;99.90;;;;;;5137814;27;20286;-72
2021/10/28 00:49:15;;;;;;;;;;;12.80;99.90;;;;;;5137987;27;19914;-71
2021/10/28 00:51:41;;;;;;;;;;;12.90;99.90;;;;;;5137992;27;20013;-71
2021/10/28 00:54:10;;;;;;;;;;;12.90;99.90;;;;;;5137611;27;19911;-70
2021/10/28 00:56:39;;;;;;;;;;;12.90;99.90;;;;;;5137431;27;19989;-72
2021/10/28 00:59:04;;;;;;;;;;;12.90;99.90;;;;;;5137856;27;19908;-71
2021/10/28 01:01:30;;;;;;;;;;;12.90;99.90;;;;;;5137496;27;20275;-71
2021/10/28 01:03:56;;;;;;;;;;;12.90;99.90;;;;;;5137767;27;19908;-70
2021/10/28 01:06:22;;;;;;;;;;;12.90;99.90;;;;;;5137396;27;20010;-71
2021/10/28 01:08:47;;;;;;;;;;;12.80;99.90;;;;;;5137680;27;19908;-71
2021/10/28 01:11:14;;;;;;;;;;;12.80;99.90;;;;;;5137340;27;19911;-70
2021/10/28 01:13:40;;;;;;;;;;;12.80;99.90;;;;;;5136961;27;19915;-72
2021/10/28 01:16:06;;;;;;;;;;;12.80;99.90;;;;;;5136396;27;19923;-71
2021/10/28 01:18:33;;;;;;;;;;;12.70;99.90;;;;;;5137062;27;19955;-70
2021/10/28 01:20:59;;;;;;;;;;;12.70;99.90;;;;;;5137147;27;19907;-72
2021/10/28 01:23:25;;;;;;;;;;;12.60;99.90;;;;;;5137013;27;19908;-69
2021/10/28 01:25:52;;;;;;;;;;;12.60;99.90;;;;;;5137342;27;20351;-70
2021/10/28 01:28:17;;;;;;;;;;;12.60;99.90;;;;;;5137016;27;19908;-72
2021/10/28 01:30:47;;;;;;;;;;;12.60;99.90;;;;;;5136976;27;20361;-72
2021/10/28 01:33:13;;;;;;;;;;;12.50;99.90;;;;;;5136892;27;19908;-71
2021/10/28 01:35:39;;;;;;;;;;;12.50;99.90;;;;;;5136778;27;19911;-70
2021/10/28 01:38:05;;;;;;;;;;;12.40;99.90;;;;;;5136734;27;19907;-71
2021/10/28 01:40:30;;;;;;;;;;;12.40;99.90;;;;;;5136809;27;19908;-71
2021/10/28 01:42:56;;;;;;;;;;;12.40;99.90;;;;;;5136731;27;20363;-70
2021/10/28 01:45:21;;;;;;;;;;;12.30;99.90;;;;;;5136921;27;20007;-73
2021/10/28 01:47:48;;;;;;;;;;;12.30;99.90;;;;;;5136628;27;19908;-73
2021/10/28 01:50:14;;;;;;;;;;;12.40;99.90;;;;;;5136589;27;19914;-71
2021/10/28 01:52:40;;;;;;;;;;;12.40;99.90;;;;;;5136535;27;19908;-70
2021/10/28 01:55:09;;;;;;;;;;;12.30;99.90;;;;;;5136951;27;19960;-70
2021/10/28 01:57:35;;;;;;;;;;;12.30;99.90;;;;;;5136223;27;19945;-71
2021/10/28 02:00:00;;;;;;;;;;;12.30;99.90;;;;;;5136366;27;19914;-71
2021/10/28 02:02:26;;;;;;;;;;;12.20;99.90;;;;;;5136325;27;19907;-70
2021/10/28 02:04:51;;;;;;;;;;;12.20;99.90;;;;;;5136519;27;19956;-73
2021/10/28 02:07:17;;;;;;;;;;;12.20;99.90;;;;;;5136257;27;19908;-69
2021/10/28 02:09:42;;;;;;;;;;;12.20;99.90;;;;;;5136472;27;19907;-69
2021/10/28 02:12:08;;;;;;;;;;;12.10;99.90;;;;;;5136090;27;19915;-71
2021/10/28 02:14:34;;;;;;;;;;;12.00;99.90;;;;;;5136563;27;19919;-73
2021/10/28 02:16:59;;;;;;;;;;;12.00;99.90;;;;;;5136074;27;19930;-71
2021/10/28 02:19:25;;;;;;;;;;;12.10;99.90;;;;;;5135962;27;19907;-69
2021/10/28 02:21:50;;;;;;;;;;;12.10;99.90;;;;;;5136228;27;19907;-70
2021/10/28 02:24:16;;;;;;;;;;;12.10;99.90;;;;;;5135782;27;19908;-72
2021/10/28 02:26:43;;;;;;;;;;;12.10;99.90;;;;;;5135977;27;19908;-72
2021/10/28 02:29:08;;;;;;;;;;;12.10;99.90;;;;;;5135805;27;19908;-70
2021/10/28 02:31:35;;;;;;;;;;;12.20;99.90;;;;;;5136030;27;19907;-71
2021/10/28 02:34:01;;;;;;;;;;;12.20;99.90;;;;;;5135677;27;20356;-69
2021/10/28 02:36:26;;;;;;;;;;;12.20;99.90;;;;;;5135653;27;19962;-72
2021/10/28 02:38:52;;;;;;;;;;;12.20;99.90;;;;;;5135553;27;19908;-71
2021/10/28 02:41:17;;;;;;;;;;;12.20;99.90;;;;;;5136218;27;19997;-72
2021/10/28 02:43:43;;;;;;;;;;;12.20;99.90;;;;;;5135755;27;19908;-71
2021/10/28 02:46:09;;;;;;;;;;;12.20;99.90;;;;;;5135490;27;19912;-72
2021/10/28 02:48:34;;;;;;;;;;;12.10;99.90;;;;;;5135422;27;19907;-71
2021/10/28 02:51:00;;;;;;;;;;;12.10;99.90;;;;;;5135938;27;19912;-72
2021/10/28 02:53:25;;;;;;;;;;;12.00;99.90;;;;;;5135337;27;19914;-70
2021/10/28 02:55:51;;;;;;;;;;;12.10;99.90;;;;;;5135213;27;19915;-72
2021/10/28 02:58:17;;;;;;;;;;;12.10;99.90;;;;;;5135111;27;19915;-70
2021/10/28 03:00:43;;;;;;;;;;;12.00;99.90;;;;;;5135233;27;20313;-70
2021/10/28 03:03:09;;;;;;;;;;;12.00;99.90;;;;;;5135199;27;19908;-70
2021/10/28 03:05:35;;;;;;;;;;;12.10;99.90;;;;;;5135721;27;19907;-71
2021/10/28 03:08:00;;;;;;;;;;;12.10;99.90;;;;;;5135115;27;19907;-70
2021/10/28 03:10:26;;;;;;;;;;;12.10;99.90;;;;;;5135381;27;19953;-70
2021/10/28 03:12:53;;;;;;;;;;;12.10;99.90;;;;;;5134786;27;19965;-70
2021/10/28 03:15:19;;;;;;;;;;;12.10;99.90;;;;;;5134981;27;19915;-70
2021/10/28 03:25:57;;;;;;;;;;;11.80;99.90;;;;;;5134636;27;19915;-73
2021/10/28 03:28:23;;;;;;;;;;;11.80;99.90;;;;;;5134825;27;19907;-71
2021/10/28 03:30:49;;;;;;;;;;;11.90;99.90;;;;;;5135120;27;20252;-72
2021/10/28 03:33:18;;;;;;;;;;;11.90;99.90;;;;;;5134734;27;19907;-71
2021/10/28 03:35:45;;;;;;;;;;;11.80;99.90;;;;;;5134920;28;19912;-69
2021/10/28 03:48:49;;;;;;;;;;;11.80;99.90;;;;;;5135170;28;19907;-70
2021/10/28 04:30:45;;;;;;;;;;;12.00;99.90;;;;;;5133987;28;19957;-73
2021/10/28 04:33:12;;;;;;;;;;;12.00;99.90;;;;;;5134252;28;20303;-70
2021/10/28 04:35:37;;;;;;;;;;;12.00;99.90;;;;;;5134166;28;20349;-69
2021/10/28 04:38:03;;;;;;;;;;;12.00;99.90;;;;;;5133993;28;20054;-71
2021/10/28 04:40:28;;;;;;;;;;;12.00;99.90;;;;;;5134389;28;19911;-70
2021/10/28 04:42:54;;;;;;;;;;;12.10;99.90;;;;;;5134128;28;19908;-71
2021/10/28 04:45:20;;;;;;;;;;;12.20;99.90;;;;;;5134136;28;19915;-71
2021/10/28 04:47:45;;;;;;;;;;;12.20;99.90;;;;;;5134104;28;19933;-72
2021/10/28 04:50:11;;;;;;;;;;;12.30;99.90;;;;;;5135458;27;19915;-72
2021/10/28 04:52:37;;;;;;;;;;;12.30;99.90;;;;;;5137714;27;19907;-71
2021/10/28 04:55:03;;;;;;;;;;;12.30;99.90;;;;;;5137904;27;19912;-72
2021/10/28 04:57:28;;;;;;;;;;;12.40;99.90;;;;;;5137539;27;20477;-71
2021/10/28 04:59:54;;;;;;;;;;;12.40;99.90;;;;;;5137402;27;19957;-69
2021/10/28 05:02:19;;;;;;;;;;;12.40;99.90;;;;;;5137793;27;20002;-71
2021/10/28 05:04:45;;;;;;;;;;;12.40;99.90;;;;;;5137787;27;20363;-71
2021/10/28 05:07:10;;;;;;;;;;;12.50;99.90;;;;;;5137426;27;19911;-69
2021/10/28 05:09:40;;;;;;;;;;;12.40;99.90;;;;;;5137679;27;20018;-71
2021/10/28 05:12:05;;;;;;;;;;;12.50;99.90;;;;;;5137315;27;19907;-71
2021/10/28 05:14:31;;;;;;;;;;;12.50;99.90;;;;;;5137007;27;20307;-71
2021/10/28 05:16:58;;;;;;;;;;;12.50;99.90;;;;;;5137237;27;19908;-72
2021/10/28 05:19:24;;;;;;;;;;;12.50;99.90;;;;;;5137052;27;19950;-71
2021/10/28 05:21:49;;;;;;;;;;;12.50;99.90;;;;;;5137135;27;19908;-74
2021/10/28 05:24:15;;;;;;;;;;;12.50;99.90;;;;;;5137035;27;19915;-70
2021/10/28 05:26:40;;;;;;;;;;;12.40;99.90;;;;;;5137062;27;19907;-68
2021/10/28 05:29:06;;;;;;;;;;;12.40;99.90;;;;;;5137027;27;19945;-70
2021/10/28 05:31:32;;;;;;;;;;;12.30;99.90;;;;;;5137559;27;19911;-72
2021/10/28 05:33:57;;;;;;;;;;;12.30;99.90;;;;;;5136830;27;19930;-69
2021/10/28 05:36:23;;;;;;;;;;;12.20;99.90;;;;;;5137135;27;20031;-71
2021/10/28 05:38:48;;;;;;;;;;;12.20;99.90;;;;;;5136709;27;19914;-71
2021/10/28 05:41:14;;;;;;;;;;;12.10;99.90;;;;;;5136784;27;20393;-73
2021/10/28 05:43:40;;;;;;;;;;;12.10;99.90;;;;;;5136776;27;20020;-70
2021/10/28 05:46:05;;;;;;;;;;;12.00;99.90;;;;;;5136701;27;19916;-71
2021/10/28 05:48:31;;;;;;;;;;;11.90;99.90;;;;;;5136949;27;19908;-72
2021/10/28 05:50:59;;;;;;;;;;;11.80;99.90;;;;;;5136854;27;19953;-70
2021/10/28 05:53:24;;;;;;;;;;;11.80;99.90;;;;;;5118145;27;20324;-70
2021/10/28 05:55:50;;;;;;;;;;;11.80;99.90;;;;;;5136674;27;19938;-72
2021/10/28 05:58:16;;;;;;;;;;;11.70;99.90;;;;;;5136521;27;19907;-69
2021/10/28 06:00:41;;;;;;;;;;;11.60;99.90;;;;;;5135980;27;20286;-71
2021/10/28 06:03:07;;;;;;;;;;;11.50;99.90;;;;;;5136626;27;20351;-72
2021/10/28 06:05:32;;;;;;;;;;;11.50;99.90;;;;;;5136269;27;20328;-74
2021/10/28 06:07:58;;;;;;;;;;;11.40;99.90;;;;;;5136493;27;19908;-70
2021/10/28 06:10:23;;;;;;;;;;;11.30;99.90;;;;;;5136474;27;19987;-70
2021/10/28 06:12:52;;;;;;;;;;;11.20;99.90;;;;;;5135978;27;19945;-73
2021/10/28 06:15:20;;;;;;;;;;;11.20;99.90;;;;;;5117629;27;20492;-73
2021/10/28 06:18:13;;;;;;;;;;;11.20;99.90;;;;;;5136046;27;19911;-71
2021/10/28 06:20:39;;;;;;;;;;;11.30;99.90;;;;;;5135962;27;19907;-70
2021/10/28 06:23:04;;;;;;;;;;;11.30;99.90;;;;;;5136027;27;19907;-71
2021/10/28 06:25:30;;;;;;;;;;;11.30;99.90;;;;;;5136163;27;20389;-69
2021/10/28 06:27:56;;;;;;;;;;;11.30;99.90;;;;;;5135923;27;19915;-71
2021/10/28 06:30:21;;;;;;;;;;;11.40;99.90;;;;;;5135870;27;20405;-72
2021/10/28 06:32:52;;;;;;;;;;;11.40;99.90;;;;;;5135832;27;19946;-69
2021/10/28 06:35:17;;;;;;;;;;;11.40;99.90;;;;;;5136255;27;20383;-73
2021/10/28 06:37:47;;;;;;;;;;;11.50;99.90;;;;;;5135716;27;19919;-74
2021/10/28 06:40:13;;;;;;;;;;;11.50;99.90;;;;;;5135463;27;19915;-70
2021/10/28 06:42:39;;;;;;;;;;;11.60;99.90;;;;;;5135569;27;20268;-72
2021/10/28 06:45:05;;;;;;;;;;;11.60;99.90;;;;;;5135536;27;19914;-73
2021/10/28 06:47:30;;;;;;;;;;;11.60;99.90;;;;;;5135485;27;19914;-71
2021/10/28 06:49:58;;;;;;;;;;;11.60;99.90;;;;;;5135440;27;19907;-72
2021/10/28 06:52:24;;;;;;;;;;;11.60;99.90;;;;;;5135685;27;19908;-70
2021/10/28 06:54:52;;;;;;;;;;;11.60;99.90;;;;;;5135254;27;19919;-72
2021/10/28 06:57:36;;;;;;;;;;;11.60;99.90;;;;;;5135324;27;19908;-71
2021/10/28 07:02:47;;;;;;;;;;;11.60;99.90;;;;;;5135269;27;19915;-71
2021/10/28 07:05:12;;;;;;;;;;;11.60;99.90;;;;;;5135446;27;19907;-71
2021/10/28 07:07:38;;;;;;;;;;;11.50;99.90;;;;;;5135104;27;19911;-71
2021/10/28 07:15:03;;;;;;;;;;;11.40;99.90;;;;;;5134305;27;19923;-72
2021/10/28 07:17:36;;;;;;;;;;;11.30;99.90;;;;;;5134150;27;20278;-72
2021/10/28 08:14:44;;;;;;;;;;;11.30;99.90;;;;;;5134378;28;19926;-74
2021/10/28 08:17:34;;;;;;;;;;;11.30;99.90;;;;;;5134339;28;19917;-72
2021/10/28 08:20:03;;;;;;;;;;;11.40;99.90;;;;;;5134410;28;20363;-74
2021/10/28 08:22:39;;;;;;;;;;;11.50;99.90;;;;;;5134541;28;20366;-76
2021/10/28 08:30:33;;;;;;;;;;;11.70;99.90;;;;;;5138352;27;20274;-74
2021/10/28 08:32:59;;;;;;;;;;;11.80;99.90;;;;;;5138869;27;19908;-71
2021/10/28 08:35:25;;;;;;;;;;;11.90;99.90;;;;;;5137755;27;19915;-73
2021/10/28 08:37:55;;;;;;;;;;;12.10;99.90;;;;;;5138079;27;20328;-75
2021/10/28 08:40:20;;;;;;;;;;;12.50;99.90;;;;;;5119686;27;19914;-74
2021/10/28 08:42:46;;;;;;;;;;;13.00;99.90;;;;;;5138273;27;19908;-73
2021/10/28 08:45:14;;;;;;;;;;;13.50;99.90;;;;;;5135871;27;19919;-73
2021/10/28 08:47:46;;;;;;;;;;;13.70;99.90;;;;;;5137108;27;20394;-73
2021/10/28 08:50:14;;;;;;;;;;;13.90;99.90;;;;;;5118314;27;19977;-72
2021/10/28 09:25:40;;;;;;;;;;;14.20;99.90;;;;;;5116172;27;19999;-72
2021/10/28 09:28:25;;;;;;;;;;;14.60;99.90;;;;;;5137918;27;19907;-74
2021/10/28 09:31:03;;;;;;;;;;;14.90;99.90;;;;;;5137267;27;20001;-72
2021/10/28 09:34:24;;;;;;;;;;;14.90;99.90;;;;;;5118024;27;20294;-74
2021/10/28 09:45:00;;;;;;;;;;;15.50;99.90;;;;;;5105006;27;20060;-73
2021/10/28 09:47:36;;;;;;;;;;;15.50;99.90;;;;;;5136390;27;19980;-72
2021/10/28 09:50:12;;;;;;;;;;;15.60;99.90;;;;;;5136679;27;19914;-75
2021/10/28 09:52:48;;;;;;;;;;;15.50;99.90;;;;;;5137381;27;20036;-71
2021/10/28 09:58:31;;;;;;;;;;;15.30;99.90;;;;;;5063319;27;19920;-76
2021/10/28 10:00:58;;;;;;;;;;;15.20;99.90;;;;;;5137186;27;20294;-74
2021/10/28 10:06:00;;;;;;;;;;;15.10;99.90;;;;;;5136881;27;19907;-75
2021/10/28 10:08:27;;;;;;;;;;;15.20;99.90;;;;;;5117586;27;19994;-76
2021/10/28 10:10:53;;;;;;;;;;;15.20;99.90;;;;;;5135960;27;20338;-72
2021/10/28 10:13:27;;;;;;;;;;;15.20;99.90;;;;;;5135362;27;19959;-76
2021/10/28 10:15:53;;;;;;;;;;;15.20;99.90;;;;;;5135671;27;19943;-76
2021/10/28 10:18:21;;;;;;;;;;;15.20;99.90;;;;;;5134843;27;19926;-73
2021/10/28 10:20:54;;;;;;;;;;;15.20;99.90;;;;;;5125234;27;19911;-75
2021/10/28 11:04:01;;;;;;;;;;;15.70;99.90;;;;;;5121419;27;20455;-71
2021/10/28 12:01:31;;;;;;;;;;;15.90;99.90;;;;;;5134451;27;19919;-71
2021/10/28 12:17:35;;;;;;;;;;;16.50;99.90;;;;;;5138462;27;19943;-75
2021/10/28 12:54:00;;;;;;;;;;;16.90;99.90;;;;;;5117570;28;20343;-75
2021/10/28 13:02:27;;;;;;;;;;;17.00;99.90;;;;;;5136837;27;19995;-77
2021/10/28 15:56:52;;;;;;;;;;;16.90;99.90;;;;;;5134566;28;19958;-70
2021/10/28 16:23:55;;;;;;;;;;;16.40;99.90;;;;;;5134074;27;19956;-72
2021/10/28 16:26:21;;;;;;;;;;;16.30;99.90;;;;;;5134285;28;19907;-69
2021/10/28 16:28:47;;;;;;;;;;;16.30;99.90;;;;;;5134882;28;20398;-70
2021/10/28 16:31:16;;;;;;;;;;;16.20;99.90;;;;;;5134275;28;19911;-71
2021/10/28 16:33:41;;;;;;;;;;;16.20;99.90;;;;;;5134239;28;20283;-69
2021/10/28 16:36:07;;;;;;;;;;;16.20;99.90;;;;;;5134104;28;19912;-72
2021/10/28 16:38:33;;;;;;;;;;;16.20;99.90;;;;;;5134154;28;19912;-71
2021/10/28 16:40:58;;;;;;;;;;;16.10;99.90;;;;;;5134757;28;20367;-72
2021/10/28 16:43:24;;;;;;;;;;;16.10;99.90;;;;;;5133948;28;20292;-71
2021/10/28 16:45:49;;;;;;;;;;;16.10;99.90;;;;;;5136554;27;19907;-73
2021/10/28 16:48:15;;;;;;;;;;;16.10;99.90;;;;;;5137902;27;19914;-72
2021/10/28 16:50:41;;;;;;;;;;;16.00;99.90;;;;;;5138090;27;19943;-72
2021/10/28 16:53:08;;;;;;;;;;;16.00;99.90;;;;;;5137760;27;19942;-71
2021/10/28 16:55:34;;;;;;;;;;;16.00;99.90;;;;;;5137688;27;20005;-72
2021/10/28 16:57:59;;;;;;;;;;;15.90;99.90;;;;;;5137694;27;20390;-71
2021/10/28 17:00:25;;;;;;;;;;;15.90;99.90;;;;;;5137638;27;19907;-71
2021/10/28 17:02:50;;;;;;;;;;;15.90;99.90;;;;;;5137625;27;19907;-71
2021/10/28 17:05:16;;;;;;;;;;;15.90;99.90;;;;;;5137771;27;20320;-68
2021/10/28 17:07:42;;;;;;;;;;;15.90;99.90;;;;;;5137526;27;19914;-72
2021/10/28 17:10:08;;;;;;;;;;;15.80;99.90;;;;;;5137532;27;19908;-70
2021/10/28 17:12:35;;;;;;;;;;;15.80;99.90;;;;;;5137313;27;19923;-71
2021/10/28 17:15:01;;;;;;;;;;;15.80;99.90;;;;;;5137919;27;20017;-72
2021/10/28 17:17:26;;;;;;;;;;;15.70;99.90;;;;;;5137334;27;19943;-72
2021/10/28 17:19:51;;;;;;;;;;;15.70;99.90;;;;;;5137873;27;19975;-71
2021/10/28 17:22:18;;;;;;;;;;;15.70;99.90;;;;;;5137303;27;19907;-72
2021/10/28 17:24:49;;;;;;;;;;;15.70;99.90;;;;;;5137436;27;19908;-72
2021/10/28 17:27:14;;;;;;;;;;;15.70;99.90;;;;;;5137757;27;20313;-73
2021/10/28 17:29:40;;;;;;;;;;;15.70;99.90;;;;;;5137107;27;19908;-69
2021/10/28 17:32:07;;;;;;;;;;;15.70;99.90;;;;;;5137038;27;19907;-72
2021/10/28 17:34:35;;;;;;;;;;;15.60;99.90;;;;;;5137489;27;19918;-73
2021/10/28 17:37:01;;;;;;;;;;;15.60;99.90;;;;;;5136981;27;19994;-73
2021/10/28 17:39:27;;;;;;;;;;;15.70;99.90;;;;;;5136970;27;19914;-71
2021/10/28 17:41:53;;;;;;;;;;;15.60;99.90;;;;;;5137190;27;20371;-72
2021/10/28 17:44:21;;;;;;;;;;;15.60;99.90;;;;;;5136582;27;19907;-72
2021/10/28 17:46:47;;;;;;;;;;;15.50;99.90;;;;;;5137155;27;19915;-71
2021/10/28 17:49:13;;;;;;;;;;;15.60;99.90;;;;;;5136795;27;19915;-72
2021/10/28 17:51:41;;;;;;;;;;;15.60;99.90;;;;;;5136910;27;19950;-72
2021/10/28 17:54:10;;;;;;;;;;;15.50;99.90;;;;;;5136659;27;20383;-71
2021/10/28 17:56:39;;;;;;;;;;;15.50;99.90;;;;;;5136397;27;20352;-71
2021/10/28 17:59:05;;;;;;;;;;;15.50;99.90;;;;;;5136565;27;19908;-73
2021/10/28 18:01:34;;;;;;;;;;;15.50;99.90;;;;;;5136482;27;19999;-71
2021/10/28 18:04:00;;;;;;;;;;;15.40;99.90;;;;;;5136379;27;19907;-71
2021/10/28 18:06:29;;;;;;;;;;;15.40;99.90;;;;;;5136413;27;20002;-71
2021/10/28 18:08:56;;;;;;;;;;;15.40;99.90;;;;;;5136318;27;19929;-68
2021/10/28 18:11:22;;;;;;;;;;;15.40;99.90;;;;;;5136921;27;20276;-70
2021/10/28 18:13:53;;;;;;;;;;;15.40;99.90;;;;;;5136037;27;19926;-70
2021/10/28 18:16:19;;;;;;;;;;;15.40;99.90;;;;;;5136435;27;19920;-72
2021/10/28 18:18:45;;;;;;;;;;;15.40;99.90;;;;;;5136137;27;20290;-70
2021/10/28 18:21:11;;;;;;;;;;;15.40;99.90;;;;;;5136646;27;19907;-70
2021/10/28 18:23:43;;;;;;;;;;;15.40;99.90;;;;;;5135776;27;19911;-70
2021/10/28 18:26:09;;;;;;;;;;;15.40;99.90;;;;;;5136559;27;19908;-71
2021/10/28 18:28:35;;;;;;;;;;;15.40;99.90;;;;;;5135984;27;20328;-71
2021/10/28 18:31:01;;;;;;;;;;;15.30;99.90;;;;;;5136506;27;20391;-73
2021/10/28 18:33:26;;;;;;;;;;;15.30;99.90;;;;;;5135871;27;19994;-71
2021/10/28 18:35:52;;;;;;;;;;;15.30;99.90;;;;;;5135750;27;19915;-69
2021/10/28 18:38:17;;;;;;;;;;;15.30;99.90;;;;;;5136076;27;19984;-71
2021/10/28 18:40:43;;;;;;;;;;;15.20;99.90;;;;;;5135717;27;19907;-70
2021/10/28 18:43:09;;;;;;;;;;;15.30;99.90;;;;;;5135692;27;20260;-72
2021/10/28 18:45:34;;;;;;;;;;;15.20;99.90;;;;;;5135901;27;19964;-72
2021/10/28 18:48:00;;;;;;;;;;;15.20;99.90;;;;;;5135586;27;19907;-72
2021/10/28 18:50:26;;;;;;;;;;;15.20;99.90;;;;;;5135555;27;19907;-73
2021/10/28 18:52:52;;;;;;;;;;;15.20;99.90;;;;;;5135484;27;20276;-71
2021/10/28 18:55:17;;;;;;;;;;;15.20;99.90;;;;;;5135386;27;19912;-71
2021/10/28 18:57:43;;;;;;;;;;;15.10;99.90;;;;;;5135940;27;19929;-72
2021/10/28 19:00:09;;;;;;;;;;;15.20;99.90;;;;;;5135580;27;19907;-71
2021/10/28 19:02:36;;;;;;;;;;;15.10;99.90;;;;;;5135902;27;19907;-70
2021/10/28 19:05:06;;;;;;;;;;;15.00;99.90;;;;;;5135468;27;20274;-69
2021/10/28 19:07:31;;;;;;;;;;;15.00;99.90;;;;;;5135294;27;19939;-68
2021/10/28 19:09:57;;;;;;;;;;;15.00;99.90;;;;;;5134472;27;20256;-71
2021/10/28 19:12:23;;;;;;;;;;;14.90;99.90;;;;;;5134901;27;19915;-72
2021/10/28 19:14:49;;;;;;;;;;;14.90;99.90;;;;;;5135330;27;20344;-71
2021/10/28 19:17:14;;;;;;;;;;;14.90;99.90;;;;;;5135045;27;19933;-72
2021/10/28 19:19:40;;;;;;;;;;;14.80;99.90;;;;;;5135065;27;19915;-71
2021/10/28 19:22:06;;;;;;;;;;;14.80;99.90;;;;;;5134948;27;19908;-72
2021/10/28 19:24:32;;;;;;;;;;;14.80;99.90;;;;;;5134902;27;19994;-72
2021/10/28 19:26:57;;;;;;;;;;;14.80;99.90;;;;;;5135519;27;19915;-71
2021/10/28 19:29:24;;;;;;;;;;;14.80;99.90;;;;;;5134957;27;19915;-73
2021/10/28 19:31:55;;;;;;;;;;;14.80;99.90;;;;;;5135465;27;20002;-71
2021/10/28 19:34:20;;;;;;;;;;;14.80;99.90;;;;;;5135465;27;19908;-72
2021/10/28 19:37:35;;;;;;;;;;;14.70;99.90;;;;;;5134807;27;19912;-70
2021/10/28 19:47:25;;;;;;;;;;;14.50;99.90;;;;;;5134488;28;19914;-70
2021/10/28 19:49:51;;;;;;;;;;;14.50;99.90;;;;;;5134650;28;19907;-73
2021/10/28 19:52:16;;;;;;;;;;;14.50;99.90;;;;;;5134672;28;19969;-71
2021/10/28 19:54:43;;;;;;;;;;;14.50;99.90;;;;;;5134574;28;19951;-72
2021/10/28 19:57:19;;;;;;;;;;;14.40;99.90;;;;;;5134908;28;19908;-71
2021/10/28 19:59:48;;;;;;;;;;;14.40;99.90;;;;;;5134605;28;20002;-73
2021/10/28 20:02:24;;;;;;;;;;;14.40;99.90;;;;;;5134562;28;19944;-70
2021/10/28 20:07:29;;;;;;;;;;;14.50;99.90;;;;;;5135128;28;19908;-70
2021/10/28 20:20:38;;;;;;;;;;;14.50;99.90;;;;;;5136689;27;20036;-70
2021/10/28 20:23:04;;;;;;;;;;;14.60;99.90;;;;;;5138293;27;19975;-70
2021/10/28 20:25:30;;;;;;;;;;;14.50;99.90;;;;;;5138330;27;19908;-70
2021/10/28 20:27:56;;;;;;;;;;;14.50;99.90;;;;;;5138313;27;19908;-72
2021/10/28 20:33:09;;;;;;;;;;;14.50;99.90;;;;;;5138570;27;19953;-70
2021/10/28 20:38:06;;;;;;;;;;;14.60;99.90;;;;;;5137846;27;19914;-73
2021/10/28 20:40:32;;;;;;;;;;;14.50;99.90;;;;;;5138057;27;20337;-71
2021/10/28 20:42:58;;;;;;;;;;;14.50;99.90;;;;;;5138035;27;20002;-71
2021/10/28 20:45:24;;;;;;;;;;;14.50;99.90;;;;;;5137843;27;19939;-73
2021/10/28 20:47:52;;;;;;;;;;;14.50;99.90;;;;;;5138246;27;19911;-70
2021/10/28 20:50:18;;;;;;;;;;;14.50;99.90;;;;;;5137852;27;19908;-71
2021/10/28 20:52:44;;;;;;;;;;;14.50;99.90;;;;;;5138449;27;19914;-71
2021/10/28 20:55:10;;;;;;;;;;;14.50;99.90;;;;;;5137722;27;19912;-72
2021/10/28 20:57:36;;;;;;;;;;;14.50;99.90;;;;;;5137962;27;19978;-70
2021/10/28 21:00:04;;;;;;;;;;;14.50;99.90;;;;;;5137678;27;19942;-71
2021/10/28 21:02:30;;;;;;;;;;;14.50;99.90;;;;;;5138236;27;20378;-70
2021/10/28 21:04:56;;;;;;;;;;;14.50;99.90;;;;;;5137444;27;19907;-70
2021/10/28 21:07:22;;;;;;;;;;;14.40;99.90;;;;;;5137869;27;19969;-71
2021/10/28 21:09:48;;;;;;;;;;;14.40;99.90;;;;;;5137526;27;20037;-70
2021/10/28 21:12:13;;;;;;;;;;;14.40;99.90;;;;;;5137604;27;19953;-69
2021/10/28 21:14:39;;;;;;;;;;;14.40;99.90;;;;;;5137322;27;19964;-70
2021/10/28 21:17:04;;;;;;;;;;;14.40;99.90;;;;;;5137581;27;19907;-72
2021/10/28 21:19:30;;;;;;;;;;;14.50;99.90;;;;;;5137355;27;20355;-73
2021/10/28 21:21:55;;;;;;;;;;;14.50;99.90;;;;;;5118902;27;19915;-71
2021/10/28 21:24:21;;;;;;;;;;;14.50;99.90;;;;;;5137220;27;20264;-72
2021/10/28 21:26:46;;;;;;;;;;;14.50;99.90;;;;;;5137221;27;20432;-72
2021/10/28 21:29:12;;;;;;;;;;;14.50;99.90;;;;;;5137487;27;19956;-69
2021/10/28 21:31:37;;;;;;;;;;;14.40;99.90;;;;;;5136024;27;19960;-73
2021/10/28 21:34:03;;;;;;;;;;;14.50;99.90;;;;;;5137062;27;19918;-69
2021/10/28 21:36:29;;;;;;;;;;;14.40;99.90;;;;;;5136944;27;19917;-67
2021/10/28 21:38:55;;;;;;;;;;;14.40;99.90;;;;;;5136980;27;19908;-70
2021/10/28 21:41:21;;;;;;;;;;;14.40;99.90;;;;;;5137218;27;19907;-69
2021/10/28 21:43:49;;;;;;;;;;;14.40;99.90;;;;;;5136714;27;19907;-73
2021/10/28 21:46:15;;;;;;;;;;;14.50;99.90;;;;;;5136855;27;19949;-71
2021/10/28 21:48:41;;;;;;;;;;;14.40;99.90;;;;;;5137099;27;19915;-71
2021/10/28 21:51:07;;;;;;;;;;;14.50;99.90;;;;;;5136745;27;19907;-71
2021/10/28 21:53:39;;;;;;;;;;;14.50;99.90;;;;;;5136959;27;19919;-70
2021/10/28 21:56:26;;;;;;;;;;;14.50;99.90;;;;;;5136579;27;19919;-71
2021/10/28 22:01:51;;;;;;;;;;;14.50;99.90;;;;;;5136602;27;19965;-68
2021/10/28 22:26:10;;;;;;;;;;;14.50;99.90;;;;;;5135717;27;19993;-69
2021/10/28 22:28:36;;;;;;;;;;;14.50;99.90;;;;;;5136031;27;20363;-71
2021/10/28 22:31:02;;;;;;;;;;;14.40;99.90;;;;;;5136503;27;19914;-71
2021/10/28 22:33:27;;;;;;;;;;;14.40;99.90;;;;;;5135835;27;19999;-69
2021/10/28 22:35:58;;;;;;;;;;;14.40;99.90;;;;;;5135780;27;19923;-70
2021/10/28 22:38:31;;;;;;;;;;;14.40;99.90;;;;;;5136140;27;19907;-71
2021/10/28 22:40:56;;;;;;;;;;;14.40;99.90;;;;;;5135793;27;20268;-69
2021/10/28 22:43:22;;;;;;;;;;;14.40;99.90;;;;;;5136044;27;19908;-70
2021/10/28 22:45:47;;;;;;;;;;;14.40;99.90;;;;;;5117076;27;19911;-70
2021/10/28 22:48:15;;;;;;;;;;;14.40;99.90;;;;;;5135862;27;20405;-72
2021/10/28 22:50:42;;;;;;;;;;;14.40;99.90;;;;;;5135549;27;19907;-69
2021/10/28 22:53:08;;;;;;;;;;;14.40;99.90;;;;;;5135514;27;19908;-70
2021/10/28 22:55:42;;;;;;;;;;;14.40;99.90;;;;;;5135362;27;19953;-69
2021/10/28 22:58:17;;;;;;;;;;;14.40;99.90;;;;;;5136074;27;19939;-70
2021/10/28 23:21:50;;;;;;;;;;;14.30;99.90;;;;;;5135119;27;20084;-69
2021/10/28 23:24:15;;;;;;;;;;;14.40;99.90;;;;;;5134781;27;20429;-73
2021/10/28 23:26:41;;;;;;;;;;;14.30;99.90;;;;;;5134973;27;20375;-72
2021/10/28 23:29:06;;;;;;;;;;;14.30;99.90;;;;;;5135180;27;19944;-71
2021/10/28 23:31:33;;;;;;;;;;;14.30;99.90;;;;;;5134912;27;20028;-71
2021/10/28 23:33:58;;;;;;;;;;;14.30;99.90;;;;;;5134908;27;20315;-71
2021/10/28 23:36:24;;;;;;;;;;;14.30;99.90;;;;;;5135045;27;19999;-71
2021/10/28 23:38:49;;;;;;;;;;;14.30;99.90;;;;;;5134767;27;20307;-70
2021/10/28 23:41:15;;;;;;;;;;;14.30;99.90;;;;;;5134789;27;19912;-68
2021/10/28 23:43:40;;;;;;;;;;;14.30;99.90;;;;;;5135057;27;20275;-73
2021/10/28 23:46:06;;;;;;;;;;;14.30;99.90;;;;;;5134568;27;19939;-74
2021/10/28 23:48:32;;;;;;;;;;;14.30;99.90;;;;;;5134717;28;19912;-70
2021/10/28 23:50:58;;;;;;;;;;;14.30;99.90;;;;;;5134985;28;19996;-71
2021/10/28 23:53:23;;;;;;;;;;;14.40;99.90;;;;;;5134672;28;19939;-70
2021/10/28 23:55:49;;;;;;;;;;;14.40;99.90;;;;;;5137600;27;19911;-72
2021/10/28 23:58:14;;;;;;;;;;;14.40;99.90;;;;;;5138897;27;20440;-70
